Time;durP1;ratioP1;P1;durP2;ratioP2;P2;SDS_P1;SDS_P2;PMS_P1;PMS_P2;Temp;Humidity;BMP_temperature;BMP_pressure;BME280_temperature;BME280_humidity;BME280_pressure;Samples;Min_cycle;Max_cycle;Signal;HPM_P1;HPM_P2
2022/10/18 00:01:43;;;;;;;2.60;2.40;;;;;;;19.44;59.54;102509.88;5127029;28;20060;-55
2022/10/18 00:04:09;;;;;;;3.55;2.53;;;;;;;19.35;59.30;102489.09;5127303;28;20031;-56
2022/10/18 00:06:34;;;;;;;2.53;2.33;;;;;;;19.43;59.24;102506.31;5144896;27;20413;-55
2022/10/18 00:08:59;;;;;;;3.17;2.40;;;;;;;19.44;59.53;102507.16;5147888;27;20023;-52
2022/10/18 00:11:25;;;;;;;2.25;2.05;;;;;;;19.42;59.57;102501.91;5147829;27;20023;-52
2022/10/18 00:13:50;;;;;;;3.05;2.40;;;;;;;19.42;59.21;102501.91;5147439;27;20023;-54
2022/10/18 00:16:16;;;;;;;2.55;2.35;;;;;;;19.33;59.36;102485.69;5147505;27;20044;-51
2022/10/18 00:18:42;;;;;;;2.75;2.42;;;;;;;19.38;59.44;102489.69;5147654;27;20358;-50
2022/10/18 00:21:11;;;;;;;2.50;2.30;;;;;;;19.42;59.37;102492.97;5147376;27;20719;-53
2022/10/18 00:23:37;;;;;;;2.50;2.30;;;;;;;19.38;59.25;102497.78;5147524;27;20110;-56
2022/10/18 00:26:15;;;;;;;3.65;2.78;;;;;;;19.40;59.37;102493.09;5147656;27;20038;-51
2022/10/18 00:28:41;;;;;;;3.13;2.40;;;;;;;19.41;59.08;102497.53;5147248;27;20087;-54
2022/10/18 00:31:11;;;;;;;2.83;2.38;;;;;;;19.41;59.49;102491.25;5147033;27;20023;-54
2022/10/18 00:33:36;;;;;;;2.85;2.40;;;;;;;19.40;59.10;102490.38;5143900;27;20024;-53
2022/10/18 00:36:02;;;;;;;2.50;2.30;;;;;;;19.41;59.36;102500.22;5126902;28;20050;-53
2022/10/18 00:38:27;;;;;;;2.53;2.30;;;;;;;19.33;59.34;102491.94;5126804;28;20498;-53
2022/10/18 00:40:52;;;;;;;2.55;2.35;;;;;;;19.40;59.37;102508.41;5126607;28;20030;-52
2022/10/18 00:43:18;;;;;;;2.60;2.40;;;;;;;19.40;59.52;102513.81;5126590;28;20023;-54
2022/10/18 00:45:43;;;;;;;2.60;2.40;;;;;;;19.40;59.43;102508.41;5126228;28;20031;-55
2022/10/18 00:48:09;;;;;;;2.45;2.22;;;;;;;19.40;59.29;102505.72;5126615;28;20043;-52
2022/10/18 00:50:35;;;;;;;3.13;2.28;;;;;;;19.28;58.99;102487.91;5124825;28;20492;-55
2022/10/18 00:53:02;;;;;;;2.25;2.05;;;;;;;19.31;59.20;102501.97;5125374;28;20031;-52
2022/10/18 00:55:30;;;;;;;2.65;2.33;;;;;;;19.39;59.19;102510.25;5125081;28;20055;-53
2022/10/18 00:57:56;;;;;;;2.22;2.03;;;;;;;19.40;58.92;102511.13;5124428;28;20074;-52
2022/10/18 01:00:21;;;;;;;3.15;2.85;;;;;;;19.39;59.07;102507.56;5125580;28;20087;-52
2022/10/18 01:02:47;;;;;;;2.63;2.40;;;;;;;19.37;59.04;102504.16;5126209;28;20051;-52
2022/10/18 01:05:14;;;;;;;2.47;2.20;;;;;;;19.28;58.86;102486.06;5131798;27;20122;-50
2022/10/18 01:08:14;;;;;;;2.53;2.33;;;;;;;19.38;59.26;102508.56;5146804;27;20115;-51
2022/10/18 01:11:26;;;;;;;3.03;1.98;;;;;;;19.38;58.88;102507.72;5146607;27;20033;-54
2022/10/18 01:14:04;;;;;;;2.67;2.47;;;;;;;19.37;59.29;102512.25;5093035;28;20614;-53
2022/10/18 01:16:36;;;;;;;2.70;2.30;;;;;;;19.37;59.24;102505.97;5102511;28;20024;-56
2022/10/18 01:19:31;;;;;;;2.45;2.25;;;;;;;19.37;59.15;102514.94;5085974;28;20040;-56
2022/10/18 01:22:02;;;;;;;2.55;2.03;;;;;;;19.35;59.23;102503.44;5085588;28;20038;-53
2022/10/18 01:24:49;;;;;;;2.75;2.55;;;;;;;19.36;59.23;102498.88;5085592;28;20032;-56
2022/10/18 01:27:22;;;;;;;2.53;2.33;;;;;;;19.36;58.87;102496.19;5085518;28;20032;-53
2022/10/18 01:29:47;;;;;;;3.03;2.47;;;;;;;19.35;59.23;102503.44;5085134;28;20075;-53
2022/10/18 01:32:19;;;;;;;2.50;2.30;;;;;;;19.35;59.35;102519.59;5102599;28;20040;-56
2022/10/18 01:34:46;;;;;;;2.45;2.20;;;;;;;19.34;58.90;102509.81;5072447;28;20071;-53
2022/10/18 01:37:13;;;;;;;2.53;2.33;;;;;;;19.34;59.16;102514.34;5065463;28;20037;-51
2022/10/18 01:39:40;;;;;;;3.50;2.40;;;;;;;19.34;58.78;102509.81;5081937;28;20030;-54
2022/10/18 01:42:09;;;;;;;2.55;2.35;;;;;;;19.35;58.82;102511.50;5065284;28;20032;-53
2022/10/18 01:44:35;;;;;;;2.60;2.40;;;;;;;19.35;59.13;102510.66;5091274;28;20081;-54
2022/10/18 01:47:02;;;;;;;2.50;2.30;;;;;;;19.33;59.11;102521.59;5124113;28;20031;-55
2022/10/18 01:49:27;;;;;;;2.47;2.28;;;;;;;19.30;58.72;102516.47;5124972;27;20464;-51
2022/10/18 01:51:52;;;;;;;2.22;2.03;;;;;;;19.25;59.19;102509.75;5145438;27;20037;-52
2022/10/18 01:54:26;;;;;;;2.90;2.60;;;;;;;19.34;59.27;102517.06;5145826;27;20059;-57
2022/10/18 01:57:02;;;;;;;3.08;2.42;;;;;;;19.33;58.82;102516.19;5144570;27;20047;-54
2022/10/18 01:59:37;;;;;;;3.20;2.28;;;;;;;19.35;58.93;102507.97;5145205;27;20034;-51
2022/10/18 02:02:20;;;;;;;2.88;2.63;;;;;;;19.33;58.84;102505.41;5145554;27;20038;-54
2022/10/18 02:04:51;;;;;;;2.00;1.80;;;;;;;19.33;59.18;102507.25;5145430;27;20047;-52
2022/10/18 02:07:16;;;;;;;3.20;2.78;;;;;;;19.32;58.77;102506.38;5144439;27;20023;-55
2022/10/18 02:09:50;;;;;;;2.42;2.22;;;;;;;19.32;58.95;102505.53;5144882;27;20100;-55
2022/10/18 02:12:16;;;;;;;2.22;2.03;;;;;;;19.33;59.03;102516.19;5144382;27;20083;-55
2022/10/18 02:14:42;;;;;;;2.50;2.30;;;;;;;19.20;59.08;102492.13;5125884;27;20032;-54
2022/10/18 02:17:10;;;;;;;2.47;2.28;;;;;;;19.33;59.01;102512.66;5123866;28;20412;-53
2022/10/18 02:19:36;;;;;;;2.10;1.95;;;;;;;19.32;59.02;102519.00;5124688;28;20144;-55
2022/10/18 02:22:02;;;;;;;2.45;2.25;;;;;;;19.19;59.08;102503.03;5124539;28;20046;-53
2022/10/18 02:24:35;;;;;;;2.40;2.20;;;;;;;19.28;58.92;102514.88;5123219;28;20027;-53
2022/10/18 02:27:01;;;;;;;2.92;2.35;;;;;;;19.23;58.71;102505.34;5124837;28;20030;-53
2022/10/18 02:29:27;;;;;;;2.47;2.28;;;;;;;19.32;58.84;102519.00;5122860;28;20023;-56
2022/10/18 02:32:03;;;;;;;2.58;2.38;;;;;;;19.24;58.90;102506.19;5123095;28;20092;-53
2022/10/18 02:34:32;;;;;;;2.25;2.05;;;;;;;19.31;58.70;102523.56;5133830;27;20023;-54
2022/10/18 02:36:59;;;;;;;2.28;2.08;;;;;;;19.31;58.74;102526.25;5145079;27;20027;-53
2022/10/18 02:39:29;;;;;;;2.80;2.47;;;;;;;19.14;58.75;102498.03;5143786;27;20038;-53
2022/10/18 02:41:55;;;;;;;2.45;2.25;;;;;;;19.29;58.86;102528.25;5144792;27;20023;-54
2022/10/18 02:44:20;;;;;;;2.20;2.05;;;;;;;19.29;58.92;102530.94;5144816;27;20019;-54
2022/10/18 02:46:46;;;;;;;3.15;2.85;;;;;;;19.30;58.88;102527.25;5144448;27;20026;-51
2022/10/18 02:49:11;;;;;;;2.20;2.00;;;;;;;19.30;59.03;102516.47;5145029;27;20027;-53
2022/10/18 02:51:36;;;;;;;2.38;2.13;;;;;;;19.29;58.75;102513.91;5144629;27;20368;-54
2022/10/18 02:54:02;;;;;;;2.63;2.42;;;;;;;19.29;59.00;102508.50;5144775;27;20073;-53
2022/10/18 02:56:27;;;;;;;2.50;2.00;;;;;;;19.28;58.85;102510.31;5144675;27;20055;-53
2022/10/18 02:58:52;;;;;;;2.38;2.17;;;;;;;19.29;58.96;102516.59;5144448;27;20152;-51
2022/10/18 03:01:18;;;;;;;2.33;2.13;;;;;;;19.29;58.67;102509.38;5144332;27;20023;-53
2022/10/18 03:03:43;;;;;;;2.38;2.17;;;;;;;19.28;58.92;102510.31;5144846;27;20019;-55
2022/10/18 03:06:08;;;;;;;2.22;2.03;;;;;;;19.28;58.95;102507.63;5144491;27;20446;-54
2022/10/18 03:08:35;;;;;;;2.65;2.42;;;;;;;19.28;59.02;102510.31;5144818;27;20023;-52
2022/10/18 03:11:00;;;;;;;2.30;2.10;;;;;;;19.19;58.75;102494.94;5144562;27;20027;-52
2022/10/18 03:13:25;;;;;;;2.42;2.17;;;;;;;19.28;58.72;102499.53;5137623;27;20035;-53
2022/10/18 03:15:51;;;;;;;2.47;2.28;;;;;;;19.28;58.91;102499.53;5123706;28;20453;-50
2022/10/18 03:18:16;;;;;;;2.53;2.33;;;;;;;19.28;58.96;102493.28;5124339;28;20032;-53
2022/10/18 03:20:41;;;;;;;2.10;1.90;;;;;;;19.28;58.88;102496.84;5123573;28;20027;-53
2022/10/18 03:23:06;;;;;;;2.10;1.90;;;;;;;19.27;58.58;102496.97;5127946;28;20096;-51
2022/10/18 03:25:33;;;;;;;2.22;2.03;;;;;;;19.26;58.71;102514.16;5127958;28;20483;-53
2022/10/18 03:27:58;;;;;;;2.22;2.03;;;;;;;19.10;58.91;102488.50;5128148;28;20188;-50
2022/10/18 03:30:23;;;;;;;2.28;2.08;;;;;;;19.26;58.65;102531.19;5127352;28;20035;-52
2022/10/18 03:32:49;;;;;;;2.55;2.35;;;;;;;19.19;58.58;102514.66;5128220;28;20028;-54
2022/10/18 03:35:14;;;;;;;2.22;2.03;;;;;;;19.25;58.72;102524.09;5144991;27;20019;-55
2022/10/18 03:37:39;;;;;;;3.25;2.95;;;;;;;19.22;58.58;102521.66;5148636;27;20391;-50
2022/10/18 03:40:05;;;;;;;2.08;1.90;;;;;;;19.11;58.85;102506.38;5148530;27;20015;-55
2022/10/18 03:42:31;;;;;;;2.58;2.28;;;;;;;19.23;58.62;102518.81;5148341;27;20075;-52
2022/10/18 03:44:56;;;;;;;2.33;2.13;;;;;;;19.22;58.67;102513.56;5147772;27;20023;-56
2022/10/18 03:47:21;;;;;;;2.13;1.92;;;;;;;19.24;58.70;102522.38;5130499;27;20031;-54
2022/10/18 03:49:46;;;;;;;2.25;2.05;;;;;;;19.25;58.57;102525.94;5127148;28;20030;-55
2022/10/18 03:52:12;;;;;;;2.63;2.28;;;;;;;19.20;58.65;102523.63;5127669;28;20039;-53
2022/10/18 03:54:37;;;;;;;2.20;1.90;;;;;;;19.23;58.57;102532.28;5127415;28;20033;-52
2022/10/18 03:57:02;;;;;;;2.40;2.00;;;;;;;19.23;58.70;102526.06;5127556;28;20051;-52
2022/10/18 03:59:27;;;;;;;2.17;1.98;;;;;;;19.23;58.64;102528.75;5125235;27;20079;-50
2022/10/18 04:01:53;;;;;;;2.42;2.03;;;;;;;19.23;58.70;102532.28;5125700;28;20035;-52
2022/10/18 04:04:18;;;;;;;1.90;1.80;;;;;;;19.23;58.50;102531.44;5127034;28;20027;-55
2022/10/18 04:06:43;;;;;;;2.42;2.13;;;;;;;19.23;58.77;102526.06;5142854;27;20104;-57
2022/10/18 04:09:09;;;;;;;3.00;2.47;;;;;;;19.22;58.84;102525.19;5148001;27;20572;-54
2022/10/18 04:11:34;;;;;;;2.22;1.90;;;;;;;19.22;58.45;102522.50;5145810;27;20027;-54
2022/10/18 04:13:59;;;;;;;2.72;2.33;;;;;;;19.23;58.79;102526.06;5139478;27;20081;-52
2022/10/18 04:16:25;;;;;;;2.38;2.15;;;;;;;19.18;58.68;102520.22;5139722;27;20490;-54
2022/10/18 04:18:50;;;;;;;1.77;1.67;;;;;;;19.22;58.67;102525.19;5136579;27;20030;-55
2022/10/18 04:21:15;;;;;;;2.30;2.10;;;;;;;19.15;58.62;102512.38;5136718;27;20120;-53
2022/10/18 04:23:41;;;;;;;2.20;2.00;;;;;;;19.22;58.80;102518.97;5135838;27;20036;-52
2022/10/18 04:26:06;;;;;;;2.28;2.08;;;;;;;19.12;58.81;102496.47;5137616;27;20027;-56
2022/10/18 04:28:32;;;;;;;1.95;1.85;;;;;;;19.22;58.50;102517.09;5136596;27;20019;-55
2022/10/18 04:30:57;;;;;;;2.13;2.03;;;;;;;19.22;58.79;102522.50;5134875;27;20023;-55
2022/10/18 04:33:22;;;;;;;2.15;1.98;;;;;;;19.23;58.59;102526.06;5134287;27;20097;-54
2022/10/18 04:35:50;;;;;;;2.08;1.88;;;;;;;19.22;58.45;102529.75;5141459;27;20027;-55
2022/10/18 04:38:15;;;;;;;1.60;1.50;;;;;;;19.22;58.63;102517.09;5147255;27;20015;-56
2022/10/18 04:40:40;;;;;;;2.20;1.98;;;;;;;19.22;59.02;102525.19;5146612;27;20069;-54
2022/10/18 04:43:06;;;;;;;2.20;2.00;;;;;;;19.23;58.76;102528.75;5143973;27;20028;-54
2022/10/18 04:45:31;;;;;;;2.20;2.00;;;;;;;19.23;58.66;102531.44;5132519;27;20024;-56
2022/10/18 04:47:56;;;;;;;2.25;1.83;;;;;;;19.25;58.79;102531.34;5128122;27;20032;-54
2022/10/18 04:50:21;;;;;;;2.30;2.10;;;;;;;19.23;58.70;102536.84;5135331;27;20574;-57
2022/10/18 04:52:46;;;;;;;1.98;1.77;;;;;;;19.24;58.98;102519.66;5137194;27;20019;-55
2022/10/18 04:55:12;;;;;;;1.60;1.50;;;;;;;19.25;58.65;102520.56;5135410;27;20164;-55
2022/10/18 04:57:37;;;;;;;2.22;2.03;;;;;;;19.23;58.96;102516.13;5135807;27;20047;-54
2022/10/18 05:00:03;;;;;;;2.45;1.90;;;;;;;19.24;58.76;102514.28;5135690;27;20053;-54
2022/10/18 05:02:28;;;;;;;3.85;2.33;;;;;;;19.25;58.85;102509.75;5135123;27;20015;-55
2022/10/18 05:04:54;;;;;;;1.75;1.65;;;;;;;19.25;59.10;102501.69;5137043;27;20072;-56
2022/10/18 05:07:19;;;;;;;2.30;1.85;;;;;;;19.24;58.77;102500.78;5132973;27;20035;-57
2022/10/18 05:09:44;;;;;;;1.98;1.88;;;;;;;19.24;59.09;102506.19;5134600;27;20027;-57
2022/10/18 05:12:09;;;;;;;2.20;2.00;;;;;;;19.25;59.01;102512.47;5135633;27;20011;-55
2022/10/18 05:14:35;;;;;;;2.30;2.00;;;;;;;19.24;58.92;102511.56;5135222;27;20082;-53
2022/10/18 05:17:00;;;;;;;2.17;1.92;;;;;;;19.21;58.81;102515.41;5135830;27;20481;-54
2022/10/18 05:19:25;;;;;;;1.83;1.73;;;;;;;19.24;59.46;102525.06;5134290;27;20095;-52
2022/10/18 05:21:50;;;;;;;2.30;2.10;;;;;;;19.25;59.01;102534.03;5134740;27;20038;-54
2022/10/18 05:24:16;;;;;;;3.60;2.40;;;;;;;19.24;59.29;102533.16;5135501;27;20037;-54
2022/10/18 05:26:41;;;;;;;1.95;1.77;;;;;;;19.25;59.00;102534.88;5134974;27;20042;-55
2022/10/18 05:29:06;;;;;;;2.03;1.80;;;;;;;19.25;59.01;102521.41;5136358;27;20495;-53
2022/10/18 05:31:31;;;;;;;1.98;1.70;;;;;;;19.25;58.97;102531.34;5135206;27;20034;-58
2022/10/18 05:33:57;;;;;;;2.25;1.90;;;;;;;19.26;59.00;102543.81;5135539;27;20023;-56
2022/10/18 05:36:24;;;;;;;2.17;1.98;;;;;;;19.25;59.29;102548.38;5135485;27;20437;-55
2022/10/18 05:38:49;;;;;;;2.15;1.95;;;;;;;19.26;59.07;102549.22;5130031;27;20020;-55
2022/10/18 05:41:14;;;;;;;2.83;2.15;;;;;;;19.26;58.95;102541.13;5140816;27;20035;-54
2022/10/18 05:43:40;;;;;;;2.08;1.83;;;;;;;19.25;59.16;102553.75;5143388;27;20031;-53
2022/10/18 05:46:07;;;;;;;2.17;1.80;;;;;;;19.26;59.40;102551.91;5143005;27;20027;-55
2022/10/18 05:48:33;;;;;;;2.00;1.90;;;;;;;19.26;58.98;102549.22;5144967;27;20026;-56
2022/10/18 05:50:59;;;;;;;2.10;1.95;;;;;;;19.25;59.06;102547.50;5144574;27;20027;-54
2022/10/18 05:53:24;;;;;;;1.77;1.65;;;;;;;19.26;59.43;102551.91;5144830;27;20035;-53
2022/10/18 05:55:49;;;;;;;1.90;1.70;;;;;;;19.17;59.19;102545.47;5144598;27;20026;-53
2022/10/18 05:58:15;;;;;;;1.80;1.70;;;;;;;19.25;58.83;102561.00;5144592;27;20027;-54
2022/10/18 06:00:40;;;;;;;1.70;1.60;;;;;;;19.25;59.35;102575.34;5143234;27;20139;-51
2022/10/18 06:03:06;;;;;;;2.10;1.90;;;;;;;19.23;59.25;102578.13;5144821;27;20034;-55
2022/10/18 06:05:31;;;;;;;4.05;2.00;;;;;;;19.24;59.30;102579.00;5138476;27;20043;-54
2022/10/18 06:07:56;;;;;;;2.00;1.80;;;;;;;19.24;59.03;102584.38;5124020;28;20023;-52
2022/10/18 06:10:22;;;;;;;2.28;1.92;;;;;;;19.24;59.12;102592.47;5123665;28;20137;-55
2022/10/18 06:12:47;;;;;;;2.28;1.70;;;;;;;19.23;59.43;102594.31;5125426;27;20050;-54
2022/10/18 06:15:13;;;;;;;4.75;1.92;;;;;;;19.22;59.11;102599.84;5138784;27;20023;-54
2022/10/18 06:17:38;;;;;;;1.77;1.67;;;;;;;19.13;59.18;102584.47;5124869;28;20062;-53
2022/10/18 06:20:04;;;;;;;2.63;2.10;;;;;;;19.21;59.12;102598.16;5121142;27;20031;-56
2022/10/18 06:22:29;;;;;;;1.90;1.80;;;;;;;19.21;59.26;102611.63;5128806;27;20031;-54
2022/10/18 06:24:54;;;;;;;1.85;1.70;;;;;;;19.21;59.33;102622.41;5131489;27;20035;-54
2022/10/18 06:27:19;;;;;;;2.08;1.60;;;;;;;19.20;59.34;102615.31;5132948;27;20022;-51
2022/10/18 06:29:45;;;;;;;2.28;2.05;;;;;;;19.18;59.26;102609.19;5123311;28;20057;-52
2022/10/18 06:32:10;;;;;;;2.10;1.80;;;;;;;19.20;59.37;102624.25;5133118;27;20426;-50
2022/10/18 06:34:35;;;;;;;1.90;1.75;;;;;;;19.20;59.46;102618.88;5133854;27;20054;-50
2022/10/18 06:37:00;;;;;;;2.63;1.88;;;;;;;19.20;59.30;102629.66;5134594;27;20031;-52
2022/10/18 06:39:26;;;;;;;1.50;1.40;;;;;;;19.20;59.44;102624.25;5131820;27;20027;-52
2022/10/18 06:41:51;;;;;;;1.90;1.70;;;;;;;19.19;59.67;102624.38;5138999;27;20867;-53
2022/10/18 06:44:17;;;;;;;2.03;1.60;;;;;;;19.21;59.56;102631.34;5128380;27;20027;-51
2022/10/18 06:46:43;;;;;;;2.05;1.85;;;;;;;19.21;59.34;102631.34;5128125;27;20031;-58
2022/10/18 06:49:09;;;;;;;2.58;1.70;;;;;;;19.23;59.72;102639.31;5130941;27;20034;-56
2022/10/18 06:51:34;;;;;;;2.78;2.00;;;;;;;19.17;59.29;102626.34;5132752;27;20031;-51
2022/10/18 06:53:59;;;;;;;1.52;1.40;;;;;;;19.24;59.36;102641.00;5128486;27;20031;-52
2022/10/18 06:56:25;;;;;;;2.38;1.80;;;;;;;19.25;59.54;102645.44;5143276;27;20053;-48
2022/10/18 06:58:50;;;;;;;2.33;1.77;;;;;;;19.24;59.48;102649.09;5123111;28;20035;-48
2022/10/18 07:01:16;;;;;;;1.48;1.38;;;;;;;19.26;59.14;102643.59;5122563;28;20100;-56
2022/10/18 07:03:42;;;;;;;3.03;1.75;;;;;;;19.25;59.58;102637.34;5133924;28;20025;-54
2022/10/18 07:06:09;;;;;;;2.95;1.90;;;;;;;19.26;59.23;102647.16;5143131;27;20023;-54
2022/10/18 07:08:35;;;;;;;3.88;1.50;;;;;;;19.19;59.19;102632.47;5144424;27;20040;-53
2022/10/18 07:11:01;;;;;;;1.60;1.50;;;;;;;19.28;59.29;102653.25;5135795;27;20032;-55
2022/10/18 07:13:29;;;;;;;1.52;1.40;;;;;;;19.27;59.02;102648.84;5123468;28;20100;-55
2022/10/18 07:16:09;;;;;;;3.35;1.70;;;;;;;19.18;59.33;102633.44;5130648;28;20062;-54
2022/10/18 07:18:37;;;;;;;2.00;1.48;;;;;;;19.29;59.44;102657.69;5122251;28;20036;-54
2022/10/18 07:21:04;;;;;;;2.03;1.58;;;;;;;19.31;59.37;102662.94;5128043;28;20023;-53
2022/10/18 07:23:38;;;;;;;1.98;1.30;;;;;;;19.31;58.87;102668.34;5124460;28;20098;-55
2022/10/18 07:26:11;;;;;;;2.35;1.40;;;;;;;19.32;59.05;102673.59;5144017;27;20034;-54
2022/10/18 07:28:36;;;;;;;2.00;1.55;;;;;;;19.34;58.22;102676.19;5138199;27;20023;-52
2022/10/18 07:31:06;;;;;;;1.30;1.20;;;;;;;19.34;59.08;102685.13;5143236;27;20031;-54
2022/10/18 07:33:31;;;;;;;1.35;1.25;;;;;;;19.35;58.83;102677.88;5144096;27;20085;-54
2022/10/18 07:36:01;;;;;;;1.67;1.30;;;;;;;19.36;59.01;102679.59;5137559;27;20156;-54
2022/10/18 07:38:26;;;;;;;1.42;1.33;;;;;;;19.37;58.80;102684.00;5123540;28;20052;-56
2022/10/18 07:40:57;;;;;;;2.13;1.20;;;;;;;19.38;58.76;102691.13;5122971;28;20065;-53
2022/10/18 07:43:22;;;;;;;3.67;1.30;;;;;;;19.39;59.00;102696.38;5123486;28;20023;-56
2022/10/18 07:45:58;;;;;;;1.63;1.40;;;;;;;19.40;58.58;102702.63;5136319;28;20464;-54
2022/10/18 07:48:24;;;;;;;1.55;1.40;;;;;;;19.36;58.67;102687.69;5144325;27;20016;-55
2022/10/18 07:50:49;;;;;;;2.70;1.23;;;;;;;19.41;58.67;102707.03;5142926;27;20042;-55
2022/10/18 07:53:15;;;;;;;1.42;1.30;;;;;;;19.41;58.72;102699.81;5127580;27;20035;-52
2022/10/18 07:55:40;;;;;;;1.42;1.10;;;;;;;19.43;58.28;102702.38;5122948;28;20045;-57
2022/10/18 07:58:06;;;;;;;1.60;1.50;;;;;;;19.44;58.60;102707.63;5123620;28;20035;-54
2022/10/18 08:00:31;;;;;;;1.60;1.40;;;;;;;19.45;58.50;102692.28;5122160;28;20114;-56
2022/10/18 08:02:57;;;;;;;1.50;1.40;;;;;;;19.46;58.48;102700.28;5123649;28;20106;-54
2022/10/18 08:05:23;;;;;;;1.73;1.20;;;;;;;19.39;58.31;102688.28;5129641;28;20025;-53
2022/10/18 08:07:49;;;;;;;1.33;1.23;;;;;;;19.51;58.09;102710.69;5122444;28;20016;-56
2022/10/18 08:10:14;;;;;;;2.00;1.33;;;;;;;19.43;58.23;102695.13;5126916;28;20051;-55
2022/10/18 08:12:40;;;;;;;1.40;1.30;;;;;;;19.54;58.02;102705.03;5136189;27;20041;-57
2022/10/18 08:15:06;;;;;;;1.40;1.30;;;;;;;19.55;58.20;102712.16;5146844;27;20038;-55
2022/10/18 08:17:31;;;;;;;1.45;1.20;;;;;;;19.56;58.01;102721.94;5137101;27;20023;-55
2022/10/18 08:19:56;;;;;;;1.33;1.20;;;;;;;19.58;58.22;102729.91;5126607;27;20034;-55
2022/10/18 08:22:22;;;;;;;1.20;1.10;;;;;;;19.60;58.14;102733.34;5127032;28;20063;-55
2022/10/18 08:24:48;;;;;;;15.27;1.55;;;;;;;19.62;57.61;102721.44;5126975;27;20030;-56
2022/10/18 08:27:14;;;;;;;1.48;1.33;;;;;;;19.64;58.02;102724.88;5127069;28;20066;-56
2022/10/18 08:29:39;;;;;;;1.63;1.30;;;;;;;19.67;57.82;102718.38;5138738;27;20023;-53
2022/10/18 08:32:06;;;;;;;2.17;1.25;;;;;;;19.70;57.51;102718.09;5147141;27;20027;-55
2022/10/18 08:34:31;;;;;;;1.30;1.20;;;;;;;19.71;57.63;102734.19;5135421;27;20047;-55
2022/10/18 08:36:57;;;;;;;2.60;1.30;;;;;;;19.63;57.71;102706.13;5126602;27;20015;-55
2022/10/18 08:39:22;;;;;;;1.98;1.02;;;;;;;19.80;57.67;102731.69;5126420;28;20027;-54
2022/10/18 08:41:50;;;;;;;1.55;1.45;;;;;;;19.83;57.33;102736.81;5126412;28;20027;-55
2022/10/18 08:44:24;;;;;;;1.70;1.10;;;;;;;19.86;57.13;102739.25;5126123;28;20095;-56
2022/10/18 08:46:52;;;;;;;1.40;1.30;;;;;;;19.89;57.17;102731.75;5126124;28;20080;-55
2022/10/18 08:49:39;;;;;;;2.53;1.73;;;;;;;19.94;56.72;102720.56;5126697;28;20031;-55
2022/10/18 08:52:13;;;;;;;1.67;1.30;;;;;;;19.97;56.54;102717.63;5125699;27;20042;-54
2022/10/18 08:55:08;;;;;;;1.38;1.27;;;;;;;19.99;56.89;102723.72;5127404;27;20042;-55
2022/10/18 08:57:34;;;;;;;1.20;1.10;;;;;;;20.06;56.21;102740.25;5125855;28;20063;-55
2022/10/18 09:00:01;;;;;;;1.13;1.02;;;;;;;20.07;56.14;102731.16;5126824;27;20115;-54
2022/10/18 09:02:42;;;;;;;1.70;1.27;;;;;;;20.12;56.33;102723.53;5145599;27;20544;-51
2022/10/18 09:05:45;;;;;;;1.63;1.30;;;;;;;20.14;56.00;102719.72;5130793;27;20054;-54
2022/10/18 09:08:36;;;;;;;1.10;1.00;;;;;;;20.16;55.80;102725.81;5126347;28;20088;-56
2022/10/18 09:11:39;;;;;;;1.48;1.30;;;;;;;20.19;55.78;102730.13;5118546;28;20091;-55
2022/10/18 09:14:23;;;;;;;1.85;1.40;;;;;;;20.20;55.73;102726.41;5137937;27;20083;-55
2022/10/18 09:17:20;;;;;;;1.45;1.23;;;;;;;20.10;55.88;102715.56;5133591;27;20034;-56
2022/10/18 09:20:21;;;;;;;1.50;1.20;;;;;;;20.20;55.55;102746.19;5132952;27;20019;-57
2022/10/18 09:23:01;;;;;;;1.58;0.93;;;;;;;20.19;55.62;102739.06;5139240;27;20048;-56
2022/10/18 09:25:48;;;;;;;1.40;1.00;;;;;;;20.18;55.89;102734.66;5136934;27;20485;-56
2022/10/18 09:28:35;;;;;;;1.42;1.05;;;;;;;20.17;55.92;102737.47;5124590;28;20027;-56
2022/10/18 09:31:18;;;;;;;1.20;1.10;;;;;;;20.15;55.64;102740.31;5132341;27;20054;-56
2022/10/18 09:33:55;;;;;;;1.20;1.10;;;;;;;20.13;55.63;102744.97;5133677;27;20039;-56
2022/10/18 09:36:23;;;;;;;2.00;1.27;;;;;;;20.12;55.66;102727.06;5129051;27;20526;-54
2022/10/18 09:38:52;;;;;;;2.95;1.00;;;;;;;20.11;55.87;102732.63;5137656;27;20041;-55
2022/10/18 09:41:38;;;;;;;1.42;0.98;;;;;;;20.09;55.79;102731.88;5144789;27;20023;-55
2022/10/18 09:44:11;;;;;;;1.38;0.90;;;;;;;20.08;55.90;102743.69;5127758;27;20019;-55
2022/10/18 09:46:40;;;;;;;1.17;1.05;;;;;;;19.99;56.01;102731.81;5136286;27;20030;-52
2022/10/18 09:49:12;;;;;;;1.98;1.33;;;;;;;20.05;56.38;102746.63;5144402;27;20033;-55
2022/10/18 09:51:39;;;;;;;1.35;1.02;;;;;;;20.04;56.23;102753.88;5132292;27;20504;-54
2022/10/18 09:54:30;;;;;;;0.98;0.93;;;;;;;20.03;55.94;102751.31;5123466;28;20049;-54
2022/10/18 09:57:31;;;;;;;1.08;0.90;;;;;;;20.03;55.89;102754.88;5123755;28;20031;-55
2022/10/18 09:59:56;;;;;;;1.30;1.20;;;;;;;20.02;56.28;102745.06;5123683;28;20051;-54
2022/10/18 10:02:22;;;;;;;2.70;1.45;;;;;;;19.93;56.11;102733.22;5141183;27;20052;-53
2022/10/18 10:04:52;;;;;;;1.05;0.95;;;;;;;20.00;56.12;102747.03;5127353;27;20023;-55
2022/10/18 10:07:33;;;;;;;2.33;1.30;;;;;;;19.96;56.14;102746.47;5143031;27;20027;-53
2022/10/18 10:10:05;;;;;;;2.70;0.98;;;;;;;20.00;56.20;102748.88;5136640;27;20055;-54
2022/10/18 10:12:35;;;;;;;1.20;1.10;;;;;;;19.96;56.02;102742.88;5144334;27;20049;-55
2022/10/18 10:15:21;;;;;;;1.42;1.13;;;;;;;19.97;56.18;102748.16;5136629;27;20087;-53
2022/10/18 10:18:13;;;;;;;2.22;1.38;;;;;;;19.98;56.22;102767.91;5145419;27;20031;-55
2022/10/18 10:21:06;;;;;;;1.23;0.98;;;;;;;19.97;56.09;102768.91;5126402;27;20038;-56
2022/10/18 10:23:37;;;;;;;1.08;0.95;;;;;;;19.95;56.27;102763.63;5123282;28;20043;-56
2022/10/18 10:26:05;;;;;;;1.25;0.93;;;;;;;19.95;56.05;102762.78;5123349;28;20118;-57
2022/10/18 10:28:34;;;;;;;1.33;1.10;;;;;;;19.94;56.28;102759.22;5124161;28;20068;-56
2022/10/18 10:31:29;;;;;;;1.48;1.15;;;;;;;19.95;56.04;102766.31;5142239;27;20103;-55
2022/10/18 10:34:02;;;;;;;1.10;0.90;;;;;;;19.96;56.29;102775.28;5128642;27;20031;-54
2022/10/18 10:36:29;;;;;;;1.83;1.23;;;;;;;19.96;55.98;102783.38;5125194;28;20028;-56
2022/10/18 10:39:12;;;;;;;1.77;1.00;;;;;;;19.95;56.25;102778.97;5122669;28;20035;-56
2022/10/18 10:41:39;;;;;;;2.58;1.10;;;;;;;19.95;56.11;102782.53;5134772;27;20623;-54
2022/10/18 10:44:14;;;;;;;2.40;1.20;;;;;;;19.96;56.10;102788.78;5143118;27;20387;-55
2022/10/18 10:46:40;;;;;;;2.40;1.30;;;;;;;19.95;56.42;102793.31;5136123;27;20024;-56
2022/10/18 10:49:05;;;;;;;1.58;0.98;;;;;;;19.92;56.72;102782.81;5139479;27;20021;-54
2022/10/18 10:51:32;;;;;;;1.38;0.98;;;;;;;19.94;56.79;102788.91;5142667;27;20031;-55
2022/10/18 10:54:10;;;;;;;1.75;1.00;;;;;;;19.95;56.59;102784.38;5124195;28;20043;-55
2022/10/18 10:56:50;;;;;;;5.28;2.17;;;;;;;19.95;56.56;102781.66;5127848;28;20067;-55
2022/10/18 10:59:17;;;;;;;1.40;1.10;;;;;;;19.96;56.69;102786.97;5132566;27;20055;-54
2022/10/18 11:01:44;;;;;;;1.63;1.23;;;;;;;19.95;56.90;102781.66;5133807;27;20048;-52
2022/10/18 11:04:24;;;;;;;3.40;1.30;;;;;;;19.95;57.08;102787.06;5139508;27;20011;-54
2022/10/18 11:07:07;;;;;;;1.48;1.38;;;;;;;19.96;57.19;102791.47;5143525;28;20030;-57
2022/10/18 11:09:55;;;;;;;2.28;1.13;;;;;;;19.95;56.76;102797.88;5144202;27;20027;-55
2022/10/18 11:12:37;;;;;;;1.38;1.15;;;;;;;19.95;57.09;102793.31;5144704;27;20043;-56
2022/10/18 11:15:10;;;;;;;2.03;0.98;;;;;;;19.95;57.06;102787.91;5123225;28;20029;-56
2022/10/18 11:17:38;;;;;;;2.67;1.23;;;;;;;19.95;57.47;102790.63;5125114;28;20023;-55
2022/10/18 11:20:08;;;;;;;2.70;1.00;;;;;;;19.95;57.38;102798.72;5134563;28;20027;-55
2022/10/18 11:22:38;;;;;;;3.15;1.45;;;;;;;19.96;57.47;102789.66;5144493;27;20033;-56
2022/10/18 11:25:04;;;;;;;2.15;1.00;;;;;;;19.96;57.66;102788.78;5124967;27;20034;-54
2022/10/18 11:27:40;;;;;;;0.90;0.90;;;;;;;19.96;57.70;102778.84;5122454;28;20032;-57
2022/10/18 11:30:12;;;;;;;1.55;1.33;;;;;;;19.96;57.61;102784.25;5142536;28;20031;-52
2022/10/18 11:32:56;;;;;;;3.08;1.27;;;;;;;19.98;57.42;102781.41;5144329;27;20480;-56
2022/10/18 11:35:21;;;;;;;1.17;1.00;;;;;;;19.97;57.71;102779.72;5144208;27;20075;-55